Time;durP1;ratioP1;P1;durP2;ratioP2;P2;SDS_P1;SDS_P2;PMS_P1;PMS_P2;Temp;Humidity;BMP_temperature;BMP_pressure;BME280_temperature;BME280_humidity;BME280_pressure;Samples;Min_cycle;Max_cycle;Signal;HPM_P1;HPM_P2
2023/04/14 00:00:33;;;;;;;17.05;7.65;;;5.10;87.40;;;;;;4993235;28;20498;-78
2023/04/14 00:03:00;;;;;;;10.30;4.90;;;5.10;87.50;;;;;;4944873;28;20038;-79
2023/04/14 00:05:29;;;;;;;83.30;40.45;;;5.20;87.20;;;;;;4976843;28;20118;-77
2023/04/14 00:07:56;;;;;;;26.63;8.85;;;5.10;87.30;;;;;;4953241;28;20054;-78
2023/04/14 00:10:22;;;;;;;82.82;39.08;;;5.10;87.20;;;;;;4973200;28;20455;-79
2023/04/14 00:12:48;;;;;;;16.58;8.55;;;5.10;87.10;;;;;;4957266;28;20390;-78
2023/04/14 00:15:14;;;;;;;17.55;7.38;;;5.10;86.90;;;;;;4957066;28;20039;-80
2023/04/14 00:17:39;;;;;;;24.17;20.17;;;5.10;87.10;;;;;;4973200;28;20131;-80
2023/04/14 00:20:07;;;;;;;14.02;4.63;;;5.10;86.90;;;;;;4956966;28;20039;-78
2023/04/14 00:22:33;;;;;;;15.50;9.57;;;5.10;86.90;;;;;;4973010;28;20055;-78
2023/04/14 00:24:58;;;;;;;13.15;3.45;;;5.10;86.90;;;;;;4963791;28;20306;-79
2023/04/14 00:27:24;;;;;;;13.05;4.43;;;5.10;87.00;;;;;;4976076;28;20449;-78
2023/04/14 00:29:50;;;;;;;9.88;4.28;;;5.10;87.20;;;;;;4976314;28;20038;-77
2023/04/14 00:32:16;;;;;;;10.70;4.75;;;5.10;87.10;;;;;;4944093;28;20049;-80
2023/04/14 00:34:41;;;;;;;12.65;3.70;;;5.10;87.30;;;;;;4992468;28;20406;-79
2023/04/14 00:37:07;;;;;;;9.20;2.80;;;5.00;87.30;;;;;;4960642;28;20119;-78
2023/04/14 00:39:33;;;;;;;13.55;3.58;;;5.10;87.40;;;;;;4992229;28;20045;-78
2023/04/14 00:42:02;;;;;;;10.55;3.58;;;5.10;87.20;;;;;;4959580;28;20046;-79
2023/04/14 00:44:28;;;;;;;13.55;3.95;;;5.10;87.10;;;;;;4960225;28;20043;-79
2023/04/14 00:46:54;;;;;;;11.50;3.38;;;5.10;87.00;;;;;;4992160;28;20049;-79
2023/04/14 00:49:20;;;;;;;8.38;3.08;;;5.10;86.90;;;;;;4976364;28;20121;-79
2023/04/14 00:51:47;;;;;;;9.32;3.85;;;5.00;86.90;;;;;;4992171;28;20533;-79
2023/04/14 00:54:16;;;;;;;9.48;3.55;;;5.00;87.00;;;;;;4992364;28;20042;-79
2023/04/14 00:56:42;;;;;;;10.95;3.53;;;5.00;87.10;;;;;;4992356;28;20080;-79
2023/04/14 00:59:08;;;;;;;9.90;3.25;;;5.00;87.20;;;;;;4990932;28;20517;-80
2023/04/14 01:01:39;;;;;;;11.35;3.40;;;5.10;87.10;;;;;;4959748;28;20073;-79
2023/04/14 01:04:05;;;;;;;9.80;3.70;;;5.00;86.80;;;;;;4992124;28;20042;-80
2023/04/14 01:06:31;;;;;;;12.18;3.78;;;5.10;86.80;;;;;;4975773;28;20054;-80
2023/04/14 01:08:58;;;;;;;11.05;3.88;;;5.10;86.80;;;;;;4976260;28;20044;-79
2023/04/14 01:11:44;;;;;;;14.88;3.63;;;5.10;86.80;;;;;;4991995;28;20564;-80
2023/04/14 01:14:18;;;;;;;13.05;3.75;;;5.00;86.80;;;;;;4991800;28;20430;-79
2023/04/14 01:16:48;;;;;;;8.73;3.33;;;5.00;86.80;;;;;;4991778;28;20117;-79
2023/04/14 01:19:42;;;;;;;13.90;3.42;;;5.00;86.60;;;;;;4995170;28;20096;-79
2023/04/14 01:22:09;;;;;;;11.60;3.97;;;5.00;86.80;;;;;;4979812;28;20043;-80
2023/04/14 01:25:10;;;;;;;7.57;3.05;;;5.00;86.80;;;;;;4979685;28;20133;-79
2023/04/14 01:27:44;;;;;;;12.15;3.35;;;4.90;86.70;;;;;;4920735;29;20090;-79
2023/04/14 01:30:48;;;;;;;9.23;3.42;;;4.90;86.70;;;;;;4978695;28;20062;-79
2023/04/14 01:33:19;;;;;;;11.25;3.53;;;4.90;86.90;;;;;;4989282;28;20031;-79
2023/04/14 01:35:50;;;;;;;7.60;3.78;;;4.80;87.10;;;;;;5001618;28;20031;-78
2023/04/14 01:38:27;;;;;;;9.77;4.43;;;4.80;87.00;;;;;;5014987;28;20135;-81
2023/04/14 01:40:58;;;;;;;13.25;4.13;;;4.80;87.00;;;;;;4982244;28;20106;-81
2023/04/14 01:43:27;;;;;;;14.30;4.53;;;4.70;87.20;;;;;;4996171;28;20070;-80
2023/04/14 01:45:56;;;;;;;7.80;3.83;;;4.60;87.40;;;;;;4993309;28;20070;-80
2023/04/14 01:48:24;;;;;;;12.63;4.70;;;4.60;87.50;;;;;;4970068;28;20038;-80
2023/04/14 01:50:50;;;;;;;15.10;4.30;;;4.60;87.30;;;;;;4963450;28;20042;-79
2023/04/14 01:53:18;;;;;;;10.80;4.63;;;4.50;87.40;;;;;;4979401;28;20046;-81
2023/04/14 01:55:47;;;;;;;10.15;3.80;;;4.40;87.50;;;;;;4995675;28;20049;-82
2023/04/14 01:58:16;;;;;;;10.95;3.15;;;4.40;87.40;;;;;;4995478;28;20050;-81
2023/04/14 02:00:43;;;;;;;10.60;3.22;;;4.10;87.70;;;;;;4963396;28;20050;-81
2023/04/14 02:03:09;;;;;;;7.47;3.78;;;4.10;88.00;;;;;;4979231;28;20047;-80
2023/04/14 02:05:38;;;;;;;11.98;3.05;;;4.00;88.00;;;;;;4962681;28;20077;-80
2023/04/14 02:08:10;;;;;;;10.07;3.00;;;3.90;87.50;;;;;;4978908;28;20428;-81
2023/04/14 02:10:40;;;;;;;9.35;3.08;;;3.90;87.90;;;;;;4979287;28;20039;-80
2023/04/14 02:13:07;;;;;;;7.13;2.97;;;3.90;87.90;;;;;;4995226;28;20109;-82
2023/04/14 02:15:34;;;;;;;11.40;3.97;;;3.90;88.00;;;;;;4978890;28;20168;-80
2023/04/14 02:18:03;;;;;;;7.75;3.58;;;3.90;87.90;;;;;;4963022;28;20069;-81
2023/04/14 02:20:29;;;;;;;13.38;3.53;;;3.90;88.20;;;;;;4994786;28;20046;-81
2023/04/14 02:22:55;;;;;;;10.68;3.20;;;3.90;88.20;;;;;;4977797;28;20180;-80
2023/04/14 02:25:24;;;;;;;9.30;3.42;;;3.90;88.10;;;;;;4979204;28;20402;-81
2023/04/14 02:27:55;;;;;;;10.93;3.60;;;3.90;88.10;;;;;;4978654;28;20053;-78
2023/04/14 02:30:31;;;;;;;10.07;3.35;;;3.80;88.30;;;;;;4994841;28;20042;-81
2023/04/14 02:33:07;;;;;;;11.55;3.50;;;3.80;88.30;;;;;;4978491;28;20554;-80
2023/04/14 02:35:49;;;;;;;10.48;2.95;;;3.80;88.50;;;;;;4978519;28;20497;-80
2023/04/14 02:38:22;;;;;;;9.40;3.30;;;3.80;88.60;;;;;;4978486;28;20149;-80
2023/04/14 02:40:49;;;;;;;7.20;2.90;;;3.80;88.50;;;;;;4994078;28;20046;-80
2023/04/14 02:43:29;;;;;;;10.68;3.72;;;3.80;88.50;;;;;;4994273;28;20486;-80
2023/04/14 02:45:57;;;;;;;12.73;3.53;;;3.80;88.60;;;;;;4978346;28;20053;-80
2023/04/14 02:48:27;;;;;;;10.70;3.38;;;3.80;88.60;;;;;;4978470;28;20033;-81
2023/04/14 02:50:54;;;;;;;7.97;2.97;;;3.80;88.60;;;;;;4994164;28;20121;-80
2023/04/14 02:53:22;;;;;;;9.73;3.00;;;3.80;88.40;;;;;;4994254;28;20042;-80
2023/04/14 02:55:50;;;;;;;7.78;3.15;;;3.80;88.30;;;;;;4978078;28;20101;-79
2023/04/14 02:58:17;;;;;;;14.73;4.40;;;3.80;88.00;;;;;;4993347;28;20046;-80
2023/04/14 03:00:45;;;;;;;6.50;3.10;;;3.80;87.90;;;;;;4961989;28;20042;-81
2023/04/14 03:03:12;;;;;;;11.45;3.63;;;3.80;87.90;;;;;;4978155;28;20043;-80
2023/04/14 03:05:42;;;;;;;8.95;3.28;;;3.80;88.10;;;;;;4978229;28;20157;-79
2023/04/14 03:08:12;;;;;;;13.98;3.50;;;3.80;88.00;;;;;;4993887;28;20050;-81
2023/04/14 03:10:40;;;;;;;9.93;3.33;;;3.80;88.40;;;;;;4977823;28;20089;-80
2023/04/14 03:13:06;;;;;;;9.25;3.22;;;3.80;88.50;;;;;;4974098;28;20049;-81
2023/04/14 03:15:32;;;;;;;7.10;3.10;;;3.80;88.50;;;;;;4958455;28;20105;-80
2023/04/14 03:17:58;;;;;;;13.50;3.13;;;3.80;88.50;;;;;;4974515;28;20042;-81
2023/04/14 03:20:25;;;;;;;10.82;2.78;;;3.70;88.70;;;;;;4958407;28;20050;-81
2023/04/14 03:23:05;;;;;;;8.63;3.60;;;3.70;89.00;;;;;;4973936;28;20043;-79
2023/04/14 03:25:36;;;;;;;11.00;3.45;;;3.70;88.90;;;;;;4974468;28;20503;-81
2023/04/14 03:28:08;;;;;;;10.50;3.60;;;3.70;88.60;;;;;;4960015;28;20047;-81
2023/04/14 03:30:37;;;;;;;9.15;2.97;;;3.70;88.60;;;;;;4977562;28;20038;-80
2023/04/14 03:33:08;;;;;;;8.55;2.85;;;3.70;88.60;;;;;;4993647;28;20042;-79
2023/04/14 03:35:36;;;;;;;14.45;4.63;;;3.70;88.40;;;;;;4977803;28;20467;-81
2023/04/14 03:38:07;;;;;;;6.32;2.95;;;3.70;88.40;;;;;;4993949;28;20046;-80
2023/04/14 03:40:37;;;;;;;5.20;3.05;;;3.70;88.30;;;;;;4976958;28;20768;-79
2023/04/14 03:43:06;;;;;;;7.50;3.17;;;3.70;88.30;;;;;;4977514;28;20398;-81
2023/04/14 03:45:32;;;;;;;10.10;4.00;;;3.70;88.50;;;;;;4992738;28;20046;-81
2023/04/14 03:48:03;;;;;;;5.53;3.38;;;3.70;88.50;;;;;;4977306;28;20490;-79
2023/04/14 03:50:35;;;;;;;8.60;3.08;;;3.70;88.40;;;;;;4993470;28;20034;-81
2023/04/14 03:53:01;;;;;;;8.75;3.40;;;3.80;88.60;;;;;;4977453;28;20034;-80
2023/04/14 03:55:31;;;;;;;8.55;3.17;;;3.70;88.70;;;;;;4960730;28;20528;-81
2023/04/14 03:58:00;;;;;;;6.70;2.75;;;3.80;88.70;;;;;;4992875;28;20078;-81
2023/04/14 04:00:26;;;;;;;13.30;3.35;;;3.80;88.70;;;;;;4976208;28;20042;-83
2023/04/14 04:02:56;;;;;;;12.60;3.58;;;3.80;88.90;;;;;;4943801;28;20042;-81
2023/04/14 04:05:22;;;;;;;10.05;3.75;;;3.80;88.80;;;;;;4973340;28;20125;-80
2023/04/14 04:07:51;;;;;;;8.48;2.90;;;3.80;89.00;;;;;;4973691;28;20047;-81
2023/04/14 04:10:19;;;;;;;7.28;3.17;;;3.80;88.90;;;;;;4973572;28;20057;-81
2023/04/14 04:12:47;;;;;;;10.75;3.75;;;3.90;88.90;;;;;;4941533;28;20054;-80
2023/04/14 04:15:13;;;;;;;10.52;3.30;;;3.90;89.20;;;;;;4973132;28;20043;-81
2023/04/14 04:17:41;;;;;;;8.60;3.53;;;3.90;89.00;;;;;;4973316;28;20398;-80
2023/04/14 04:20:11;;;;;;;9.60;3.70;;;4.00;89.30;;;;;;4989631;28;20441;-82
2023/04/14 04:22:40;;;;;;;12.00;4.32;;;4.10;89.00;;;;;;4976319;28;20039;-81
2023/04/14 04:25:09;;;;;;;19.75;13.80;;;4.00;88.60;;;;;;4992533;28;20092;-80
2023/04/14 04:27:35;;;;;;;9.70;7.00;;;4.10;88.60;;;;;;4976730;28;20103;-80
2023/04/14 04:30:02;;;;;;;13.98;5.00;;;4.10;88.70;;;;;;4960545;28;20045;-80
2023/04/14 04:32:28;;;;;;;11.52;3.80;;;4.10;88.70;;;;;;4976654;28;20042;-82
2023/04/14 04:34:55;;;;;;;13.60;3.88;;;4.10;88.50;;;;;;4976124;28;20085;-81
2023/04/14 04:37:21;;;;;;;14.20;4.65;;;4.10;88.70;;;;;;4991298;28;20111;-80
2023/04/14 04:39:47;;;;;;;7.85;3.75;;;4.10;88.90;;;;;;4992125;28;20407;-81
2023/04/14 04:42:13;;;;;;;12.45;4.70;;;4.10;88.80;;;;;;4959777;28;20047;-79
2023/04/14 04:44:39;;;;;;;10.60;3.88;;;4.10;88.70;;;;;;4976515;28;20394;-80
2023/04/14 04:47:04;;;;;;;14.38;5.28;;;4.10;88.90;;;;;;4960271;28;20038;-79
2023/04/14 04:49:30;;;;;;;14.40;3.75;;;4.10;88.90;;;;;;4976245;28;20124;-81
2023/04/14 04:51:56;;;;;;;10.00;4.18;;;4.10;88.90;;;;;;4992326;28;20109;-80
2023/04/14 04:54:22;;;;;;;8.95;4.00;;;4.10;89.00;;;;;;4995384;28;20069;-80
2023/04/14 04:56:47;;;;;;;10.75;4.00;;;4.10;88.90;;;;;;4980221;28;20042;-80
2023/04/14 04:59:13;;;;;;;13.15;4.15;;;4.10;88.90;;;;;;4980166;28;20038;-81
2023/04/14 05:01:39;;;;;;;11.57;4.22;;;4.10;88.90;;;;;;4964077;28;20042;-81
2023/04/14 05:04:05;;;;;;;6.35;4.03;;;4.10;88.80;;;;;;4979905;28;20486;-81
2023/04/14 05:06:38;;;;;;;10.30;5.18;;;4.10;88.60;;;;;;4947911;28;20388;-81
2023/04/14 05:09:04;;;;;;;13.55;4.60;;;4.10;88.50;;;;;;4963962;28;20049;-80
2023/04/14 05:11:31;;;;;;;8.18;4.20;;;4.10;88.60;;;;;;4962859;28;20038;-81
2023/04/14 05:13:57;;;;;;;13.25;3.80;;;4.10;88.70;;;;;;4947777;28;20050;-78
2023/04/14 05:16:23;;;;;;;14.20;4.43;;;4.10;88.90;;;;;;4946113;28;20046;-80
2023/04/14 05:18:49;;;;;;;13.93;4.50;;;4.10;88.80;;;;;;4968289;28;20483;-82
2023/04/14 05:21:15;;;;;;;13.90;6.35;;;4.10;88.90;;;;;;4959984;28;20299;-81
2023/04/14 05:23:42;;;;;;;14.13;5.40;;;4.20;88.90;;;;;;4943954;28;20038;-78
2023/04/14 05:26:09;;;;;;;23.95;5.50;;;4.20;88.80;;;;;;4976313;28;20058;-77
2023/04/14 05:28:35;;;;;;;15.48;4.38;;;4.20;88.80;;;;;;4943985;28;20046;-81
2023/04/14 05:31:01;;;;;;;12.57;4.70;;;4.20;88.70;;;;;;4944023;28;20046;-79
2023/04/14 05:33:27;;;;;;;10.68;5.72;;;4.20;88.60;;;;;;4959720;28;20049;-79
2023/04/14 05:35:53;;;;;;;9.90;5.45;;;4.20;88.60;;;;;;4962512;28;20045;-79
2023/04/14 05:38:19;;;;;;;9.35;5.80;;;4.20;88.70;;;;;;4979374;28;20188;-79
2023/04/14 05:40:45;;;;;;;12.43;5.28;;;4.30;88.60;;;;;;4962767;28;20129;-80
2023/04/14 05:43:11;;;;;;;11.13;5.43;;;4.30;88.60;;;;;;4946714;28;20498;-79
2023/04/14 05:45:37;;;;;;;14.02;5.85;;;4.40;88.50;;;;;;4979271;28;20042;-80
2023/04/14 05:48:03;;;;;;;14.18;6.13;;;4.40;88.60;;;;;;4979445;28;20073;-78
2023/04/14 05:50:29;;;;;;;12.40;4.88;;;4.40;88.60;;;;;;4963452;28;20037;-80
2023/04/14 05:52:54;;;;;;;8.75;4.00;;;4.40;88.70;;;;;;4956818;28;20089;-80
2023/04/14 05:55:20;;;;;;;12.25;3.80;;;4.40;88.80;;;;;;4928011;28;20043;-79
2023/04/14 05:57:46;;;;;;;10.93;3.75;;;4.40;88.50;;;;;;4976099;28;20043;-80
2023/04/14 06:00:12;;;;;;;12.27;3.90;;;4.30;88.50;;;;;;4927939;28;20094;-80
2023/04/14 06:02:39;;;;;;;7.80;4.03;;;4.20;88.50;;;;;;4959849;28;20388;-79
2023/04/14 06:05:06;;;;;;;8.32;3.92;;;4.10;88.70;;;;;;4927398;28;20101;-79
2023/04/14 06:07:35;;;;;;;6.28;4.03;;;4.10;88.70;;;;;;4975646;28;20458;-80
2023/04/14 06:10:02;;;;;;;7.35;3.53;;;4.10;89.00;;;;;;4977996;28;20528;-79
2023/04/14 06:12:27;;;;;;;12.45;4.72;;;4.10;89.30;;;;;;4978901;28;20506;-79
2023/04/14 06:14:54;;;;;;;11.93;6.15;;;4.10;90.00;;;;;;4946985;28;20077;-79
2023/04/14 06:17:20;;;;;;;9.20;4.30;;;4.20;89.60;;;;;;4962009;28;20046;-81
2023/04/14 06:19:47;;;;;;;11.45;4.28;;;4.30;89.70;;;;;;4977851;28;20054;-80
2023/04/14 06:22:20;;;;;;;11.90;5.90;;;4.40;89.60;;;;;;4946591;28;20486;-79
2023/04/14 06:24:45;;;;;;;13.23;5.30;;;4.40;90.00;;;;;;4952956;28;20093;-79
2023/04/14 06:27:11;;;;;;;7.90;4.35;;;4.50;90.20;;;;;;4942872;28;20042;-79
2023/04/14 06:29:37;;;;;;;9.38;5.88;;;4.60;90.00;;;;;;4975154;28;20093;-79
2023/04/14 06:32:03;;;;;;;7.55;4.13;;;4.60;89.80;;;;;;4975879;28;20479;-80
2023/04/14 06:34:28;;;;;;;10.85;5.00;;;4.80;90.10;;;;;;4975762;28;20122;-80
2023/04/14 06:36:55;;;;;;;11.68;4.85;;;4.80;89.70;;;;;;4943748;28;20039;-79
2023/04/14 06:39:21;;;;;;;8.73;5.20;;;5.00;90.10;;;;;;4960094;28;20046;-80
2023/04/14 06:41:47;;;;;;;12.88;5.63;;;5.10;89.80;;;;;;4959632;28;20086;-79
2023/04/14 06:44:13;;;;;;;11.82;4.72;;;5.20;89.50;;;;;;5000989;28;20030;-79
2023/04/14 06:46:39;;;;;;;15.30;6.20;;;5.30;89.30;;;;;;4964042;28;20049;-80
2023/04/14 06:49:06;;;;;;;10.43;4.57;;;5.40;89.10;;;;;;4978286;28;20046;-80
2023/04/14 06:51:32;;;;;;;12.70;6.45;;;5.50;89.00;;;;;;4993481;28;20058;-80
2023/04/14 06:53:58;;;;;;;10.70;5.32;;;5.60;89.10;;;;;;4988446;28;20038;-79
2023/04/14 06:56:24;;;;;;;12.38;5.75;;;5.70;89.00;;;;;;4977438;28;20042;-79
2023/04/14 06:58:50;;;;;;;11.60;5.72;;;5.80;88.90;;;;;;4954648;28;20141;-78
2023/04/14 07:01:16;;;;;;;7.57;5.88;;;5.80;88.60;;;;;;4972071;28;20035;-79
2023/04/14 07:03:42;;;;;;;12.32;5.05;;;6.00;88.30;;;;;;4976758;28;20093;-80
2023/04/14 07:06:14;;;;;;;9.88;5.43;;;6.00;87.90;;;;;;4976364;28;20050;-80
2023/04/14 07:08:40;;;;;;;10.20;5.47;;;6.10;87.80;;;;;;4974809;28;20054;-79
2023/04/14 07:11:07;;;;;;;12.27;5.50;;;6.20;87.70;;;;;;4943442;28;20038;-79
2023/04/14 07:13:34;;;;;;;11.07;5.10;;;6.30;88.00;;;;;;4974960;28;20039;-80
2023/04/14 07:16:05;;;;;;;10.52;5.57;;;6.50;87.80;;;;;;4976614;28;20044;-79
2023/04/14 07:18:31;;;;;;;16.25;6.22;;;6.60;87.60;;;;;;4970511;28;20114;-78
2023/04/14 07:20:58;;;;;;;9.98;5.20;;;6.60;87.20;;;;;;4976421;28;20049;-80
2023/04/14 07:23:24;;;;;;;12.63;5.40;;;6.80;87.10;;;;;;4960134;28;20042;-80
2023/04/14 07:25:53;;;;;;;12.02;4.97;;;6.80;87.00;;;;;;4944416;28;20520;-78
2023/04/14 07:28:20;;;;;;;14.93;6.07;;;7.00;86.90;;;;;;4959054;28;20050;-80
2023/04/14 07:30:47;;;;;;;12.23;5.28;;;7.20;86.40;;;;;;4959655;28;20080;-80
2023/04/14 07:33:17;;;;;;;9.88;5.47;;;7.30;86.30;;;;;;4959281;28;20478;-79
2023/04/14 07:35:47;;;;;;;10.43;5.28;;;7.40;86.00;;;;;;4960208;28;20074;-79
2023/04/14 07:38:16;;;;;;;9.48;4.63;;;7.50;85.90;;;;;;4941281;28;20065;-80
2023/04/14 07:40:41;;;;;;;9.70;5.15;;;7.60;86.00;;;;;;4960094;28;20054;-79
2023/04/14 07:43:07;;;;;;;10.38;5.20;;;7.70;85.90;;;;;;4957411;28;20394;-80
2023/04/14 07:45:33;;;;;;;11.90;5.50;;;7.80;85.40;;;;;;4956977;28;20042;-80
2023/04/14 07:47:58;;;;;;;10.00;5.25;;;8.00;85.40;;;;;;4942518;28;20255;-79
2023/04/14 07:50:25;;;;;;;13.73;4.95;;;8.00;85.60;;;;;;4957757;28;20043;-79
2023/04/14 07:52:51;;;;;;;9.82;5.72;;;8.10;85.60;;;;;;4959335;28;20516;-80
2023/04/14 07:55:17;;;;;;;13.38;5.60;;;8.20;85.50;;;;;;4959699;28;20068;-79
2023/04/14 07:57:43;;;;;;;11.95;4.80;;;8.30;84.90;;;;;;4975677;28;20450;-80
2023/04/14 08:00:10;;;;;;;11.00;5.10;;;8.40;84.10;;;;;;4975741;28;20049;-80
2023/04/14 08:02:36;;;;;;;9.27;5.05;;;8.60;84.10;;;;;;4959987;28;20043;-80
2023/04/14 08:05:03;;;;;;;11.32;5.28;;;8.70;84.20;;;;;;4944286;28;20050;-79
2023/04/14 08:07:29;;;;;;;10.98;5.72;;;8.80;84.20;;;;;;4960736;28;20053;-79
2023/04/14 08:09:54;;;;;;;13.70;6.00;;;8.90;83.50;;;;;;4976711;28;20081;-77
2023/04/14 08:12:20;;;;;;;10.95;5.50;;;9.00;83.60;;;;;;4960462;28;20299;-77
2023/04/14 08:14:46;;;;;;;12.98;4.85;;;9.00;83.20;;;;;;4945423;28;20046;-78
2023/04/14 08:17:13;;;;;;;10.40;5.47;;;9.10;83.00;;;;;;4939175;28;20085;-78
2023/04/14 08:19:39;;;;;;;11.18;5.13;;;9.30;83.60;;;;;;4954380;28;20085;-77
2023/04/14 08:22:05;;;;;;;9.32;4.82;;;9.40;83.60;;;;;;4959175;28;20096;-80
2023/04/14 08:24:31;;;;;;;14.77;6.18;;;9.40;83.30;;;;;;4937673;28;20034;-79
2023/04/14 08:26:57;;;;;;;10.43;5.00;;;9.60;83.40;;;;;;4936565;28;20038;-80
2023/04/14 08:29:22;;;;;;;10.48;4.35;;;9.70;83.00;;;;;;4954176;28;20042;-77
2023/04/14 08:31:48;;;;;;;9.35;3.55;;;9.90;80.00;;;;;;4937037;28;20042;-78
2023/04/14 08:34:20;;;;;;;11.80;4.68;;;10.00;77.20;;;;;;4954308;28;20046;-78
2023/04/14 08:36:48;;;;;;;12.20;3.92;;;10.20;76.20;;;;;;4953905;28;20057;-79
2023/04/14 08:39:14;;;;;;;10.43;3.97;;;10.30;73.10;;;;;;4953452;28;20085;-78
2023/04/14 08:41:41;;;;;;;12.77;5.18;;;10.40;74.20;;;;;;4953096;28;20082;-78
2023/04/14 08:44:07;;;;;;;12.38;4.10;;;10.50;71.80;;;;;;4969677;28;20054;-78
2023/04/14 08:46:35;;;;;;;14.90;4.90;;;10.60;72.10;;;;;;4953806;28;20502;-78
2023/04/14 08:49:14;;;;;;;9.70;4.20;;;10.70;72.10;;;;;;4953615;28;20042;-78
2023/04/14 08:51:42;;;;;;;11.95;4.13;;;10.80;73.90;;;;;;4953141;28;20196;-78
2023/04/14 08:54:09;;;;;;;12.32;4.68;;;11.00;72.40;;;;;;4969318;28;20054;-79
2023/04/14 08:56:42;;;;;;;12.40;4.50;;;11.00;71.70;;;;;;4954380;28;20457;-79
2023/04/14 08:59:10;;;;;;;14.23;4.60;;;11.10;71.80;;;;;;4969301;28;20061;-78
2023/04/14 09:01:37;;;;;;;11.95;4.15;;;11.30;72.60;;;;;;4952177;28;20047;-79
2023/04/14 09:04:04;;;;;;;10.77;4.57;;;11.40;72.50;;;;;;4948939;28;20137;-79
2023/04/14 09:06:31;;;;;;;11.00;5.88;;;11.50;70.00;;;;;;4971522;28;20085;-79
2023/04/14 09:08:59;;;;;;;13.13;6.72;;;11.60;71.00;;;;;;4988380;28;20125;-78
2023/04/14 09:11:26;;;;;;;12.90;6.15;;;11.70;70.80;;;;;;4987884;28;20392;-79
2023/04/14 09:13:52;;;;;;;12.95;6.78;;;11.60;68.80;;;;;;4988897;28;20050;-79
2023/04/14 09:16:18;;;;;;;26.23;8.70;;;11.60;69.00;;;;;;4972566;28;20085;-80
2023/04/14 09:18:45;;;;;;;18.90;9.07;;;11.70;68.80;;;;;;4984619;28;20151;-78
2023/04/14 09:21:11;;;;;;;22.10;10.00;;;11.70;68.20;;;;;;4973124;28;20053;-79
2023/04/14 09:23:40;;;;;;;29.45;10.57;;;11.80;66.00;;;;;;4992312;28;20042;-79
2023/04/14 09:26:08;;;;;;;20.70;11.32;;;11.80;66.10;;;;;;4966378;28;20482;-80
2023/04/14 09:28:34;;;;;;;22.77;10.35;;;12.00;66.10;;;;;;4974088;28;20042;-80
2023/04/14 09:31:01;;;;;;;22.05;11.45;;;12.00;66.30;;;;;;4959319;28;20038;-79
2023/04/14 09:33:27;;;;;;;22.83;13.48;;;12.10;67.30;;;;;;4959788;28;20050;-78
2023/04/14 09:35:53;;;;;;;21.13;9.73;;;12.20;65.90;;;;;;4943667;28;20561;-79
2023/04/14 09:38:35;;;;;;;17.58;9.32;;;12.30;67.00;;;;;;4975725;28;20046;-79
2023/04/14 09:41:03;;;;;;;18.30;9.18;;;12.30;64.90;;;;;;4978770;28;20129;-79
2023/04/14 09:43:29;;;;;;;17.15;8.88;;;12.50;66.40;;;;;;4978634;28;20050;-78
2023/04/14 09:45:57;;;;;;;17.48;7.80;;;12.60;64.50;;;;;;4978727;28;20054;-77
2023/04/14 09:48:23;;;;;;;14.18;6.57;;;12.80;65.50;;;;;;4962640;28;20524;-79
2023/04/14 09:51:05;;;;;;;14.60;6.05;;;12.80;63.60;;;;;;4947180;28;20413;-79
2023/04/14 09:53:40;;;;;;;7.18;3.60;;;13.00;64.20;;;;;;4979265;28;20122;-79
2023/04/14 09:56:10;;;;;;;11.02;3.47;;;13.00;62.70;;;;;;4979052;28;20050;-79
2023/04/14 09:58:38;;;;;;;5.78;1.77;;;13.10;61.80;;;;;;4993684;28;20034;-79
2023/04/14 10:01:15;;;;;;;5.50;1.58;;;13.20;59.80;;;;;;4998021;28;20038;-79
2023/04/14 10:03:48;;;;;;;4.57;1.50;;;13.00;57.40;;;;;;4998047;28;20053;-79
2023/04/14 10:06:19;;;;;;;5.00;1.90;;;13.20;57.70;;;;;;4998046;28;20069;-79
2023/04/14 10:08:53;;;;;;;4.80;1.70;;;13.20;58.70;;;;;;4979307;28;20125;-78
2023/04/14 10:11:21;;;;;;;8.13;2.13;;;13.10;59.30;;;;;;4978716;28;20045;-78
2023/04/14 10:13:52;;;;;;;8.07;1.83;;;13.30;57.80;;;;;;4977791;28;20041;-79
2023/04/14 10:16:18;;;;;;;7.75;1.70;;;13.40;59.50;;;;;;4979026;28;20050;-78
2023/04/14 10:18:45;;;;;;;4.80;1.33;;;13.30;55.80;;;;;;4962603;28;20038;-79
2023/04/14 10:21:14;;;;;;;4.70;1.67;;;13.40;58.10;;;;;;4946461;28;20043;-79
2023/04/14 10:23:41;;;;;;;6.70;1.70;;;13.50;56.30;;;;;;4978309;28;20402;-78
2023/04/14 10:26:08;;;;;;;5.50;1.73;;;13.60;57.10;;;;;;4946799;28;20046;-79
2023/04/14 10:28:36;;;;;;;6.90;2.03;;;13.70;57.40;;;;;;4978756;28;20054;-79
2023/04/14 10:31:04;;;;;;;7.32;1.90;;;13.70;55.40;;;;;;4978126;28;20061;-79
2023/04/14 10:33:30;;;;;;;5.63;2.50;;;13.80;57.70;;;;;;4962229;28;20041;-78
2023/04/14 10:36:00;;;;;;;4.78;2.00;;;14.00;55.50;;;;;;4978288;28;20054;-79
2023/04/14 10:38:45;;;;;;;5.53;1.70;;;14.10;55.00;;;;;;4962369;28;20038;-79
2023/04/14 10:41:11;;;;;;;;;;;14.30;56.20;;;;;;4962987;28;20520;-79
2023/04/14 10:43:38;;;;;;;5.78;1.83;;;14.50;55.40;;;;;;4978275;28;19965;-78
2023/04/14 10:46:06;;;;;;;5.63;1.48;;;14.50;54.20;;;;;;4962067;28;20045;-79
2023/04/14 10:48:34;;;;;;;4.15;1.73;;;14.70;56.00;;;;;;4977230;28;20044;-79
2023/04/14 10:51:03;;;;;;;5.50;1.55;;;14.50;54.20;;;;;;4960815;28;20113;-78
2023/04/14 10:53:54;;;;;;;6.85;2.60;;;14.50;54.30;;;;;;4962076;28;20160;-78
2023/04/14 10:56:21;;;;;;;5.97;1.83;;;14.50;52.00;;;;;;4977685;28;20046;-78
2023/04/14 10:58:57;;;;;;;5.63;2.08;;;14.30;52.00;;;;;;4977662;28;20049;-79
2023/04/14 11:01:30;;;;;;;7.03;1.80;;;14.20;53.10;;;;;;4961817;28;20050;-79
2023/04/14 11:04:09;;;;;;;3.35;1.65;;;14.00;53.10;;;;;;4976689;28;20058;-78
2023/04/14 11:06:51;;;;;;;2.97;1.30;;;14.10;54.60;;;;;;4977370;28;20058;-78
2023/04/14 11:09:37;;;;;;;6.28;1.42;;;14.30;52.50;;;;;;4961571;28;20053;-79
2023/04/14 11:12:23;;;;;;;6.03;1.92;;;14.50;51.60;;;;;;4961436;28;20043;-78
2023/04/14 11:14:53;;;;;;;4.80;1.60;;;14.30;52.00;;;;;;4977517;28;20426;-79
2023/04/14 11:17:23;;;;;;;5.35;1.70;;;14.40;53.20;;;;;;4961212;28;20045;-77
2023/04/14 11:19:54;;;;;;;5.97;1.67;;;14.50;54.00;;;;;;4960025;28;20334;-78
2023/04/14 11:22:40;;;;;;;3.78;1.50;;;14.40;53.40;;;;;;4944983;28;20042;-79
2023/04/14 11:25:09;;;;;;;5.45;1.73;;;14.20;52.50;;;;;;4960976;28;20049;-78
2023/04/14 11:27:36;;;;;;;6.03;1.83;;;14.00;55.50;;;;;;4977057;28;20034;-79
2023/04/14 11:30:02;;;;;;;9.02;2.45;;;13.90;53.30;;;;;;4961469;28;20042;-78
2023/04/14 11:32:29;;;;;;;9.27;2.88;;;14.00;55.20;;;;;;4961180;28;20050;-78
2023/04/14 11:34:54;;;;;;;8.27;2.00;;;14.00;53.80;;;;;;4977545;28;20124;-78
2023/04/14 11:37:20;;;;;;;5.72;1.77;;;14.10;54.10;;;;;;4976450;28;20076;-79
2023/04/14 11:39:47;;;;;;;7.38;2.03;;;14.30;54.50;;;;;;4960803;28;20038;-78
2023/04/14 11:42:13;;;;;;;5.70;1.75;;;14.40;53.70;;;;;;4945361;28;20046;-78
2023/04/14 11:44:39;;;;;;;7.10;2.22;;;14.30;48.90;;;;;;4960808;28;20049;-78
2023/04/14 11:47:04;;;;;;;6.15;2.53;;;14.30;52.30;;;;;;4960731;28;20437;-78
2023/04/14 11:49:36;;;;;;;6.18;2.08;;;14.30;51.90;;;;;;4960858;28;20038;-78
2023/04/14 11:52:06;;;;;;;4.90;1.90;;;14.50;54.30;;;;;;4960546;28;20129;-77
2023/04/14 11:54:37;;;;;;;3.47;1.80;;;14.90;54.10;;;;;;4975709;28;20077;-77
2023/04/14 11:57:08;;;;;;;7.20;1.58;;;15.20;51.40;;;;;;4976882;28;20046;-78
2023/04/14 11:59:45;;;;;;;4.53;1.15;;;15.50;49.30;;;;;;4960705;28;20050;-77
2023/04/14 12:02:16;;;;;;;4.30;1.58;;;15.80;49.60;;;;;;4960480;28;20395;-77
2023/04/14 12:04:43;;;;;;;3.45;1.42;;;16.00;50.00;;;;;;4960823;28;20128;-76
2023/04/14 12:07:15;;;;;;;5.63;1.88;;;15.90;50.50;;;;;;4983848;28;20132;-77
2023/04/14 12:09:45;;;;;;;4.00;1.80;;;15.80;50.60;;;;;;4970624;28;20054;-78
2023/04/14 12:12:13;;;;;;;5.82;1.80;;;15.60;49.30;;;;;;4960402;28;20050;-78
2023/04/14 12:14:41;;;;;;;5.43;2.08;;;15.50;48.10;;;;;;4992900;28;20430;-78
2023/04/14 12:17:08;;;;;;;8.90;2.10;;;15.40;48.20;;;;;;4992870;28;20121;-78
2023/04/14 12:19:37;;;;;;;5.45;1.85;;;15.20;48.30;;;;;;4992630;28;20371;-77
2023/04/14 12:22:08;;;;;;;10.02;4.45;;;15.60;51.30;;;;;;4960101;28;20042;-78
2023/04/14 12:24:41;;;;;;;5.15;1.80;;;16.00;51.30;;;;;;4960186;28;20089;-77
2023/04/14 12:27:08;;;;;;;7.90;1.85;;;16.40;50.30;;;;;;4979624;28;20045;-78
2023/04/14 12:29:38;;;;;;;6.82;2.33;;;16.60;49.60;;;;;;4996011;28;20429;-78
2023/04/14 12:32:11;;;;;;;7.32;1.73;;;16.70;50.30;;;;;;4979528;28;20046;-78
2023/04/14 12:34:37;;;;;;;4.88;1.73;;;16.90;50.90;;;;;;4979227;28;20041;-77
2023/04/14 12:37:08;;;;;;;4.57;1.90;;;17.10;51.50;;;;;;4996235;28;20125;-78
2023/04/14 12:39:59;;;;;;;5.55;1.95;;;17.20;49.70;;;;;;4995870;28;20037;-77
2023/04/14 12:42:26;;;;;;;5.57;2.80;;;17.50;45.40;;;;;;4983445;28;20046;-78
2023/04/14 12:45:00;;;;;;;7.40;2.10;;;17.50;45.30;;;;;;4987352;28;20393;-77
2023/04/14 12:47:32;;;;;;;4.70;1.98;;;17.90;47.00;;;;;;4989143;28;20389;-77
2023/04/14 12:50:00;;;;;;;5.13;2.35;;;17.80;47.90;;;;;;4991445;28;20038;-78
2023/04/14 12:52:37;;;;;;;4.85;1.83;;;17.60;48.70;;;;;;4988566;28;20045;-77
2023/04/14 12:55:03;;;;;;;6.05;1.80;;;17.20;48.00;;;;;;4992207;28;20078;-77